createdAt,value
2017-10-08T00:00:31.171Z,1001.36
2017-10-08T00:01:31.564Z,1001.24
2017-10-08T00:02:31.987Z,1001.37
2017-10-08T00:03:32.413Z,1001.33
2017-10-08T00:04:32.841Z,1001.35
2017-10-08T00:05:33.273Z,1001.33
2017-10-08T00:06:33.724Z,1001.31
2017-10-08T00:07:34.122Z,1001.30
2017-10-08T00:08:34.552Z,1001.29
2017-10-08T00:09:34.974Z,1001.25
2017-10-08T00:10:35.407Z,1001.35
2017-10-08T00:11:35.830Z,1001.32
2017-10-08T00:12:36.256Z,1001.29
2017-10-08T00:13:36.690Z,1001.27
2017-10-08T00:14:37.112Z,1001.27
2017-10-08T00:15:37.560Z,1001.24
2017-10-08T00:16:37.967Z,1001.28
2017-10-08T00:17:38.407Z,1001.31
2017-10-08T00:18:38.854Z,1001.17
2017-10-08T00:19:39.257Z,1001.19
2017-10-08T00:20:39.674Z,1001.29
2017-10-08T00:21:40.173Z,1001.22
2017-10-08T00:22:40.570Z,1001.24
2017-10-08T00:23:40.975Z,1001.20
2017-10-08T00:24:41.378Z,1001.28
2017-10-08T00:25:41.814Z,1001.28
2017-10-08T00:26:42.234Z,1001.31
2017-10-08T00:27:42.659Z,1001.22
2017-10-08T00:28:43.086Z,1001.21
2017-10-08T00:29:43.542Z,1001.25
2017-10-08T00:30:43.939Z,1001.21
2017-10-08T00:31:44.366Z,1001.22
2017-10-08T00:32:44.791Z,1001.29
2017-10-08T00:33:45.222Z,1001.24
2017-10-08T00:34:45.647Z,1001.22
2017-10-08T00:35:46.077Z,1001.23
2017-10-08T00:36:46.499Z,1001.23
2017-10-08T00:37:46.930Z,1001.23
2017-10-08T00:38:47.361Z,1001.24
2017-10-08T00:39:47.783Z,1001.31
2017-10-08T00:40:48.216Z,1001.22
2017-10-08T00:41:48.638Z,1001.31
2017-10-08T00:42:49.066Z,1001.25
2017-10-08T00:43:49.497Z,1001.20
2017-10-08T00:44:49.927Z,1001.23
2017-10-08T00:45:50.342Z,1001.11
2017-10-08T00:46:50.769Z,1001.21
2017-10-08T00:47:51.197Z,1001.21
2017-10-08T00:48:51.625Z,1001.24
2017-10-08T00:49:52.055Z,1001.23
2017-10-08T00:50:52.480Z,1001.22
2017-10-08T00:51:52.912Z,1001.22
2017-10-08T00:52:53.334Z,1001.23
2017-10-08T00:53:53.758Z,1001.22
2017-10-08T00:54:54.186Z,1001.20
2017-10-08T00:55:54.616Z,1001.21
2017-10-08T00:56:55.041Z,1001.21
2017-10-08T00:57:55.470Z,1001.16
2017-10-08T00:58:55.896Z,1001.26
2017-10-08T00:59:56.327Z,1001.28
2017-10-08T01:00:56.747Z,1001.25
2017-10-08T01:01:57.179Z,1001.34
2017-10-08T01:02:57.615Z,1001.27
2017-10-08T01:03:58.037Z,1001.29
2017-10-08T01:04:58.458Z,1001.29
2017-10-08T01:05:58.883Z,1001.28
2017-10-08T01:06:59.314Z,1001.27
2017-10-08T01:07:59.742Z,1001.24
2017-10-08T01:09:00.172Z,1001.27
2017-10-08T01:10:00.593Z,1001.25
2017-10-08T01:11:01.024Z,1001.30
2017-10-08T01:12:01.447Z,1001.28
2017-10-08T01:13:01.875Z,1001.27
2017-10-08T01:14:02.324Z,1001.30
2017-10-08T01:15:02.733Z,1001.29
2017-10-08T01:16:03.157Z,1001.27
2017-10-08T01:17:03.623Z,1001.28
2017-10-08T01:18:04.013Z,1001.26
2017-10-08T01:19:04.438Z,1001.29
2017-10-08T01:20:04.872Z,1001.35
2017-10-08T01:21:05.296Z,1001.33
2017-10-08T01:22:05.719Z,1001.34
2017-10-08T01:23:06.151Z,1001.26
2017-10-08T01:24:06.581Z,1001.37
2017-10-08T01:25:07.002Z,1001.34
2017-10-08T01:26:07.459Z,1001.34
2017-10-08T01:27:07.873Z,1001.31
2017-10-08T01:28:08.285Z,1001.32
2017-10-08T01:29:08.711Z,1001.29
2017-10-08T01:30:09.154Z,1001.29
2017-10-08T01:31:09.566Z,1001.28
2017-10-08T01:32:09.997Z,1001.25
2017-10-08T01:33:10.426Z,1001.32
2017-10-08T01:34:10.851Z,1001.32
2017-10-08T01:35:11.286Z,1001.28
2017-10-08T01:36:11.703Z,1001.36
2017-10-08T01:37:12.133Z,1001.35
2017-10-08T01:38:12.557Z,1001.36
2017-10-08T01:39:12.994Z,1001.44
2017-10-08T01:40:13.413Z,1001.42
2017-10-08T01:41:13.843Z,1001.48
2017-10-08T01:42:14.272Z,1001.46
2017-10-08T01:43:14.699Z,1001.48
2017-10-08T01:44:15.123Z,1001.50
2017-10-08T01:45:15.551Z,1001.42
2017-10-08T01:46:15.981Z,1001.50
2017-10-08T01:47:16.406Z,1001.45
2017-10-08T01:48:16.835Z,1001.49
2017-10-08T01:49:17.259Z,1001.45
2017-10-08T01:50:20.620Z,1001.45
2017-10-08T01:51:18.118Z,1001.45
2017-10-08T01:52:18.541Z,1001.46
2017-10-08T01:53:18.972Z,1001.45
2017-10-08T01:54:19.394Z,1001.47
2017-10-08T01:55:19.826Z,1001.47
2017-10-08T01:56:20.250Z,1001.44
2017-10-08T01:57:20.682Z,1001.51
2017-10-08T01:58:21.114Z,1001.52
2017-10-08T01:59:21.536Z,1001.53
2017-10-08T02:00:21.965Z,1001.58
2017-10-08T02:01:22.402Z,1001.58
2017-10-08T02:02:22.816Z,1001.53
2017-10-08T02:03:23.243Z,1001.53
2017-10-08T02:04:23.673Z,1001.55
2017-10-08T02:05:24.098Z,1001.48
2017-10-08T02:06:24.530Z,1001.55
2017-10-08T02:07:24.957Z,1001.51
2017-10-08T02:08:28.121Z,1001.53
2017-10-08T02:09:25.811Z,1001.50
2017-10-08T02:10:26.235Z,1001.56
2017-10-08T02:11:26.696Z,1001.56
2017-10-08T02:12:27.100Z,1001.56
2017-10-08T02:13:27.518Z,1001.56
2017-10-08T02:14:27.948Z,1001.57
2017-10-08T02:15:28.379Z,1001.62
2017-10-08T02:16:28.802Z,1001.66
2017-10-08T02:17:29.229Z,1001.65
2017-10-08T02:18:29.656Z,1001.66
2017-10-08T02:19:30.100Z,1001.69
2017-10-08T02:20:30.514Z,1001.68
2017-10-08T02:21:30.943Z,1001.66
2017-10-08T02:22:31.373Z,1001.68
2017-10-08T02:23:31.796Z,1001.67
2017-10-08T02:24:32.234Z,1001.71
2017-10-08T02:25:32.655Z,1001.71
2017-10-08T02:26:33.078Z,1001.70
2017-10-08T02:27:34.126Z,1001.72
2017-10-08T02:28:33.940Z,1001.74
2017-10-08T02:29:34.361Z,1001.77
2017-10-08T02:30:34.793Z,1001.76
2017-10-08T02:31:35.220Z,1001.78
2017-10-08T02:32:35.645Z,1001.78
2017-10-08T02:33:36.077Z,1001.75
2017-10-08T02:34:36.500Z,1001.78
2017-10-08T02:35:36.952Z,1001.78
2017-10-08T02:36:37.358Z,1001.78
2017-10-08T02:37:37.788Z,1001.82
2017-10-08T02:38:38.214Z,1001.79
2017-10-08T02:39:38.646Z,1001.81
2017-10-08T02:40:39.071Z,1001.79
2017-10-08T02:41:39.494Z,1001.84
2017-10-08T02:42:39.928Z,1001.86
2017-10-08T02:43:40.352Z,1001.89
2017-10-08T02:44:40.805Z,1001.84
2017-10-08T02:45:41.212Z,1001.87
2017-10-08T02:46:41.637Z,1001.88
2017-10-08T02:47:43.629Z,1001.88
2017-10-08T02:48:42.496Z,1001.88
2017-10-08T02:49:42.922Z,1001.87
2017-10-08T02:50:43.349Z,1001.87
2017-10-08T02:51:43.774Z,1001.89
2017-10-08T02:52:44.204Z,1001.86
2017-10-08T02:53:44.635Z,1001.86
2017-10-08T02:54:45.058Z,1001.89
2017-10-08T02:55:45.493Z,1001.87
2017-10-08T02:56:45.917Z,1001.90
2017-10-08T02:57:46.344Z,1001.88
2017-10-08T02:58:46.770Z,1001.92
2017-10-08T02:59:47.199Z,1001.88
2017-10-08T03:00:47.631Z,1001.94
2017-10-08T03:01:48.055Z,1001.92
2017-10-08T03:02:48.485Z,1001.98
2017-10-08T03:03:48.912Z,1001.90
2017-10-08T03:04:49.337Z,1001.96
2017-10-08T03:05:49.766Z,1001.93
2017-10-08T03:06:50.196Z,1002.02
2017-10-08T03:07:50.628Z,1001.98
2017-10-08T03:08:51.053Z,1001.97
2017-10-08T03:09:51.475Z,1001.93
2017-10-08T03:10:51.928Z,1001.93
2017-10-08T03:11:52.333Z,1001.96
2017-10-08T03:12:52.761Z,1001.99
2017-10-08T03:13:53.189Z,1001.96
2017-10-08T03:14:53.618Z,1001.98
2017-10-08T03:15:54.051Z,1001.98
2017-10-08T03:16:54.477Z,1002.02
2017-10-08T03:17:54.907Z,1001.99
2017-10-08T03:18:55.329Z,1002.02
2017-10-08T03:19:55.760Z,1002.00
2017-10-08T03:20:56.190Z,1002.01
2017-10-08T03:21:56.618Z,1002.02
2017-10-08T03:22:57.050Z,1002.04
2017-10-08T03:23:57.485Z,1002.09
2017-10-08T03:24:57.931Z,1002.09
2017-10-08T03:25:58.334Z,1002.08
2017-10-08T03:26:58.757Z,1002.09
2017-10-08T03:27:59.182Z,1002.12
2017-10-08T03:28:59.616Z,1002.12
2017-10-08T03:30:00.041Z,1002.15
2017-10-08T03:31:00.468Z,1002.12
2017-10-08T03:32:00.896Z,1002.17
2017-10-08T03:33:01.327Z,1002.16
2017-10-08T03:34:01.759Z,1002.20
2017-10-08T03:35:02.192Z,1002.18
2017-10-08T03:36:02.615Z,1002.18
2017-10-08T03:37:03.039Z,1002.22
2017-10-08T03:38:03.469Z,1002.17
2017-10-08T03:39:03.895Z,1002.18
2017-10-08T03:40:04.326Z,1002.25
2017-10-08T03:41:04.756Z,1002.24
2017-10-08T03:42:05.182Z,1002.23
2017-10-08T03:43:05.613Z,1002.22
2017-10-08T03:44:06.040Z,1002.23
2017-10-08T03:45:06.471Z,1002.25
2017-10-08T03:46:06.895Z,1002.26
2017-10-08T03:47:07.328Z,1002.27
2017-10-08T03:48:07.752Z,1002.24
2017-10-08T03:49:08.183Z,1002.21
2017-10-08T03:50:08.613Z,1002.22
2017-10-08T03:51:09.037Z,1002.16
2017-10-08T03:52:09.471Z,1002.28
2017-10-08T03:53:09.895Z,1002.25
2017-10-08T03:54:10.323Z,1002.30
2017-10-08T03:55:10.752Z,1002.26
2017-10-08T03:56:11.179Z,1002.31
2017-10-08T03:57:11.613Z,1002.33
2017-10-08T03:58:12.038Z,1002.34
2017-10-08T03:59:12.464Z,1002.30
2017-10-08T04:00:12.897Z,1002.28
2017-10-08T04:01:13.322Z,1002.29
2017-10-08T04:02:13.755Z,1002.27
2017-10-08T04:03:14.180Z,1002.25
2017-10-08T04:04:14.610Z,1002.29
2017-10-08T04:05:15.039Z,1002.30
2017-10-08T04:06:15.468Z,1002.32
2017-10-08T04:07:15.896Z,1002.32
2017-10-08T04:08:16.325Z,1002.32
2017-10-08T04:09:16.770Z,1002.36
2017-10-08T04:10:17.176Z,1002.36
2017-10-08T04:11:17.618Z,1002.31
2017-10-08T04:12:18.095Z,1002.34
2017-10-08T04:13:18.495Z,1002.36
2017-10-08T04:14:18.896Z,1002.34
2017-10-08T04:15:19.320Z,1002.34
2017-10-08T04:16:19.748Z,1002.39
2017-10-08T04:17:20.183Z,1002.44
2017-10-08T04:18:20.604Z,1002.44
2017-10-08T04:19:21.033Z,1002.40
2017-10-08T04:20:21.465Z,1002.41
2017-10-08T04:21:21.891Z,1002.43
2017-10-08T04:22:22.324Z,1002.44
2017-10-08T04:23:22.750Z,1002.44
2017-10-08T04:24:23.176Z,1002.47
2017-10-08T04:25:23.607Z,1002.50
2017-10-08T04:26:24.034Z,1002.53
2017-10-08T04:27:24.490Z,1002.47
2017-10-08T04:28:24.902Z,1002.52
2017-10-08T04:29:25.319Z,1002.52
2017-10-08T04:30:25.751Z,1002.55
2017-10-08T04:31:26.179Z,1002.55
2017-10-08T04:32:26.607Z,1002.58
2017-10-08T04:33:27.038Z,1002.63
2017-10-08T04:34:27.461Z,1002.67
2017-10-08T04:35:27.889Z,1002.78
2017-10-08T04:36:28.342Z,1002.88
2017-10-08T04:37:28.748Z,1002.88
2017-10-08T04:38:29.177Z,1002.82
2017-10-08T04:39:29.601Z,1002.80
2017-10-08T04:40:30.034Z,1002.82
2017-10-08T04:41:30.461Z,1002.81
2017-10-08T04:42:30.887Z,1002.77
2017-10-08T04:43:31.316Z,1002.76
2017-10-08T04:44:31.746Z,1002.78
2017-10-08T04:45:32.177Z,1002.80
2017-10-08T04:46:32.609Z,1002.82
2017-10-08T04:47:33.032Z,1002.79
2017-10-08T04:48:33.460Z,1002.88
2017-10-08T04:49:33.891Z,1002.85
2017-10-08T04:50:34.319Z,1002.85
2017-10-08T04:51:34.743Z,1002.86
2017-10-08T04:52:35.178Z,1002.87
2017-10-08T04:53:35.599Z,1002.88
2017-10-08T04:54:36.038Z,1002.93
2017-10-08T04:55:36.457Z,1002.95
2017-10-08T04:56:36.884Z,1002.94
2017-10-08T04:57:37.316Z,1002.96
2017-10-08T04:58:37.744Z,1002.96
2017-10-08T04:59:38.170Z,1003.03
2017-10-08T05:00:38.596Z,1003.07
2017-10-08T05:01:39.065Z,1003.06
2017-10-08T05:02:39.466Z,1003.05
2017-10-08T05:03:39.898Z,1003.02
2017-10-08T05:04:40.323Z,1002.99
2017-10-08T05:05:40.743Z,1003.04
2017-10-08T05:06:41.165Z,1003.03
2017-10-08T05:07:41.674Z,1003.04
2017-10-08T05:08:42.029Z,1003.08
2017-10-08T05:09:42.450Z,1003.08
2017-10-08T05:10:42.880Z,1003.08
2017-10-08T05:11:43.308Z,1003.13
2017-10-08T05:12:43.737Z,1003.12
2017-10-08T05:13:44.167Z,1003.10
2017-10-08T05:14:44.593Z,1003.08
2017-10-08T05:15:45.026Z,1003.12
2017-10-08T05:16:45.459Z,1003.13
2017-10-08T05:17:45.879Z,1003.14
2017-10-08T05:18:46.305Z,1003.11
2017-10-08T05:19:46.738Z,1003.09
2017-10-08T05:20:47.160Z,1003.10
2017-10-08T05:21:47.614Z,1003.16
2017-10-08T05:22:48.017Z,1003.19
2017-10-08T05:23:48.450Z,1003.14
2017-10-08T05:24:48.881Z,1003.17
2017-10-08T05:25:49.302Z,1003.22
2017-10-08T05:26:49.728Z,1003.25
2017-10-08T05:27:50.156Z,1003.27
2017-10-08T05:28:50.586Z,1003.27
2017-10-08T05:29:51.016Z,1003.25
2017-10-08T05:30:51.441Z,1003.26
2017-10-08T05:31:51.871Z,1003.31
2017-10-08T05:32:52.297Z,1003.29
2017-10-08T05:33:52.738Z,1003.34
2017-10-08T05:34:53.174Z,1003.36
2017-10-08T05:35:53.588Z,1003.41
2017-10-08T05:36:54.020Z,1003.39
2017-10-08T05:37:54.439Z,1003.44
2017-10-08T05:38:54.867Z,1003.41
2017-10-08T05:39:55.299Z,1003.44
2017-10-08T05:40:55.757Z,1003.47
2017-10-08T05:41:56.159Z,1003.49
2017-10-08T05:42:56.580Z,1003.51
2017-10-08T05:43:57.009Z,1003.56
2017-10-08T05:44:57.435Z,1003.56
2017-10-08T05:45:57.865Z,1003.55
2017-10-08T05:46:58.291Z,1003.59
2017-10-08T05:47:58.726Z,1003.60
2017-10-08T05:48:59.150Z,1003.56
2017-10-08T05:49:59.579Z,1003.59
2017-10-08T05:51:00.010Z,1003.58
2017-10-08T05:52:00.435Z,1003.57
2017-10-08T05:53:00.860Z,1003.60
2017-10-08T05:54:01.289Z,1003.57
2017-10-08T05:55:01.719Z,1003.57
2017-10-08T05:56:02.157Z,1003.60
2017-10-08T05:57:02.574Z,1003.58
2017-10-08T05:58:03.001Z,1003.62
2017-10-08T05:59:03.432Z,1003.66
2017-10-08T06:00:03.875Z,1003.64
2017-10-08T06:01:04.288Z,1003.67
2017-10-08T06:02:04.722Z,1003.69
2017-10-08T06:03:05.156Z,1003.70
2017-10-08T06:04:05.572Z,1003.74
2017-10-08T06:05:06.013Z,1003.77
2017-10-08T06:06:06.427Z,1003.78
2017-10-08T06:07:06.857Z,1003.82
2017-10-08T06:08:07.284Z,1003.87
2017-10-08T06:09:07.711Z,1003.91
2017-10-08T06:10:08.142Z,1003.88
2017-10-08T06:11:08.569Z,1003.88
2017-10-08T06:12:08.996Z,1003.93
2017-10-08T06:13:09.424Z,1003.92
2017-10-08T06:14:09.871Z,1003.98
2017-10-08T06:15:10.281Z,1003.98
2017-10-08T06:16:10.710Z,1003.95
2017-10-08T06:17:11.139Z,1003.97
2017-10-08T06:18:11.567Z,1004.01
2017-10-08T06:19:12.023Z,1004.00
2017-10-08T06:20:12.423Z,1004.06
2017-10-08T06:21:12.850Z,1004.04
2017-10-08T06:22:13.286Z,1004.08
2017-10-08T06:23:13.710Z,1004.07
2017-10-08T06:24:14.138Z,1004.13
2017-10-08T06:25:14.565Z,1004.15
2017-10-08T06:26:14.995Z,1004.10
2017-10-08T06:27:15.420Z,1004.14
2017-10-08T06:28:15.849Z,1004.19
2017-10-08T06:29:16.277Z,1004.20
2017-10-08T06:30:16.708Z,1004.22
2017-10-08T06:31:17.137Z,1004.20
2017-10-08T06:32:17.565Z,1004.24
2017-10-08T06:33:17.994Z,1004.28
2017-10-08T06:34:18.422Z,1004.29
2017-10-08T06:35:18.847Z,1004.33
2017-10-08T06:36:19.279Z,1004.35
2017-10-08T06:37:19.716Z,1004.39
2017-10-08T06:38:20.134Z,1004.43
2017-10-08T06:39:20.564Z,1004.47
2017-10-08T06:40:20.992Z,1004.48
2017-10-08T06:41:21.418Z,1004.49
2017-10-08T06:42:21.854Z,1004.48
2017-10-08T06:43:22.279Z,1004.51
2017-10-08T06:44:22.702Z,1004.48
2017-10-08T06:45:23.137Z,1004.56
2017-10-08T06:46:23.561Z,1004.58
2017-10-08T06:47:23.988Z,1004.61
2017-10-08T06:48:24.416Z,1004.63
2017-10-08T06:49:24.846Z,1004.64
2017-10-08T06:50:25.280Z,1004.66
2017-10-08T06:51:25.701Z,1004.64
2017-10-08T06:52:26.131Z,1004.65
2017-10-08T06:53:26.683Z,1004.66
2017-10-08T06:56:00.122Z,1004.76
2017-10-08T06:57:00.497Z,1004.79
2017-10-08T06:58:56.102Z,1004.83
2017-10-08T07:01:30.760Z,1004.91
2017-10-08T07:02:31.066Z,1004.96
2017-10-08T07:03:31.491Z,1004.95
2017-10-08T07:04:31.918Z,1004.96
2017-10-08T07:05:32.347Z,1005.00
2017-10-08T07:06:32.773Z,1004.93
2017-10-08T07:07:33.204Z,1004.96
2017-10-08T07:08:33.629Z,1004.97
2017-10-08T07:09:34.057Z,1005.02
2017-10-08T07:10:34.495Z,1005.03
2017-10-08T07:11:34.914Z,1004.98
2017-10-08T07:12:35.342Z,1005.06
2017-10-08T07:13:35.771Z,1005.12
2017-10-08T07:16:09.461Z,1005.11
2017-10-08T07:18:43.697Z,1005.09
2017-10-08T07:19:44.127Z,1005.06
2017-10-08T07:21:56.223Z,1005.14
2017-10-08T07:24:29.739Z,1005.16
2017-10-08T07:25:30.167Z,1005.19
2017-10-08T07:27:24.985Z,1005.21
2017-10-08T07:28:25.394Z,1005.28
2017-10-08T07:30:22.667Z,1005.29
2017-10-08T07:33:00.665Z,1005.30
2017-10-08T07:34:01.067Z,1005.36
2017-10-08T07:35:55.766Z,1005.32
2017-10-08T07:36:56.075Z,1005.35
2017-10-08T07:38:50.653Z,1005.31
2017-10-08T07:39:51.081Z,1005.35
2017-10-08T07:41:45.660Z,1005.38
2017-10-08T07:42:46.063Z,1005.39
2017-10-08T07:44:41.615Z,1005.46
2017-10-08T07:45:42.048Z,1005.47
2017-10-08T07:47:37.681Z,1005.52
2017-10-08T07:48:38.053Z,1005.51
2017-10-08T07:50:32.613Z,1005.56
2017-10-08T07:51:33.040Z,1005.58
2017-10-08T07:52:33.486Z,1005.61
2017-10-08T07:53:33.904Z,1005.58
2017-10-08T07:54:34.362Z,1005.64
2017-10-08T07:57:08.445Z,1005.66
2017-10-08T07:59:41.932Z,1005.70
2017-10-08T08:00:42.351Z,1005.70
2017-10-08T08:02:36.952Z,1005.76
2017-10-08T08:03:37.341Z,1005.74
2017-10-08T08:04:37.768Z,1005.77
2017-10-08T08:05:38.219Z,1005.79
2017-10-08T08:06:38.635Z,1005.77
2017-10-08T08:07:39.076Z,1005.80
2017-10-08T08:08:39.483Z,1005.81
2017-10-08T08:09:39.913Z,1005.77
2017-10-08T08:10:40.364Z,1005.79
2017-10-08T08:11:41.677Z,1005.86
2017-10-08T08:12:41.204Z,1005.84
2017-10-08T08:13:41.643Z,1005.86
2017-10-08T08:14:42.065Z,1005.89
2017-10-08T08:15:42.537Z,1005.82
2017-10-08T08:16:42.946Z,1005.83
2017-10-08T08:17:43.349Z,1005.84
2017-10-08T08:18:43.792Z,1005.85
2017-10-08T08:19:44.208Z,1005.92
2017-10-08T08:20:44.666Z,1005.82
2017-10-08T08:21:45.071Z,1005.82
2017-10-08T08:22:45.505Z,1005.90
2017-10-08T08:23:45.931Z,1005.87
2017-10-08T08:24:46.385Z,1005.88
2017-10-08T08:25:46.824Z,1005.94
2017-10-08T08:26:47.229Z,1005.93
2017-10-08T08:27:47.684Z,1005.93
2017-10-08T08:28:48.086Z,1005.94
2017-10-08T08:29:48.520Z,1006.01
2017-10-08T08:30:48.965Z,1006.01
2017-10-08T08:31:49.388Z,1006.03
2017-10-08T08:32:49.839Z,1006.02
2017-10-08T08:33:50.260Z,1006.03
2017-10-08T08:34:50.684Z,1005.96
2017-10-08T08:35:51.112Z,1005.99
2017-10-08T08:36:51.556Z,1005.98
2017-10-08T08:37:51.969Z,1006.00
2017-10-08T08:38:52.422Z,1006.03
2017-10-08T08:39:52.863Z,1006.01
2017-10-08T08:40:53.263Z,1006.01
2017-10-08T08:41:53.697Z,1005.99
2017-10-08T08:42:54.146Z,1006.10
2017-10-08T08:43:54.565Z,1006.14
2017-10-08T08:44:55.147Z,1006.14
2017-10-08T08:45:55.534Z,1006.08
2017-10-08T08:46:56.676Z,1006.16
2017-10-08T08:47:56.335Z,1006.16
2017-10-08T08:48:56.716Z,1006.19
2017-10-08T08:49:57.164Z,1006.23
2017-10-08T08:50:57.585Z,1006.20
2017-10-08T08:51:58.024Z,1006.18
2017-10-08T08:52:58.441Z,1006.26
2017-10-08T08:53:58.876Z,1006.26
2017-10-08T08:54:59.310Z,1006.24
2017-10-08T08:55:59.737Z,1006.26
2017-10-08T08:57:00.180Z,1006.32
2017-10-08T08:58:00.601Z,1006.35
2017-10-08T08:59:01.027Z,1006.33
2017-10-08T09:00:01.458Z,1006.38
2017-10-08T09:01:01.888Z,1006.41
2017-10-08T09:02:02.318Z,1006.40
2017-10-08T09:03:02.751Z,1006.41
2017-10-08T09:04:03.185Z,1006.46
2017-10-08T09:05:03.624Z,1006.43
2017-10-08T09:06:04.044Z,1006.50
2017-10-08T09:07:04.475Z,1006.51
2017-10-08T09:08:04.906Z,1006.53
2017-10-08T09:09:05.341Z,1006.55
2017-10-08T09:10:05.766Z,1006.57
2017-10-08T09:11:06.197Z,1006.58
2017-10-08T09:12:06.632Z,1006.59
2017-10-08T09:13:07.065Z,1006.59
2017-10-08T09:14:07.499Z,1006.55
2017-10-08T09:15:07.928Z,1006.60
2017-10-08T09:16:08.360Z,1006.58
2017-10-08T09:17:08.791Z,1006.60
2017-10-08T09:18:09.223Z,1006.60
2017-10-08T09:19:09.658Z,1006.57
2017-10-08T09:20:10.097Z,1006.64
2017-10-08T09:21:10.526Z,1006.67
2017-10-08T09:22:10.960Z,1006.69
2017-10-08T09:23:11.415Z,1006.69
2017-10-08T09:24:11.830Z,1006.65
2017-10-08T09:25:12.272Z,1006.66
2017-10-08T09:26:12.701Z,1006.65
2017-10-08T09:27:13.139Z,1006.71
2017-10-08T09:28:13.573Z,1006.73
2017-10-08T09:29:14.012Z,1006.69
2017-10-08T09:30:14.467Z,1006.78
2017-10-08T09:31:14.883Z,1006.76
2017-10-08T09:32:15.317Z,1006.80
2017-10-08T09:33:15.781Z,1006.77
2017-10-08T09:34:16.200Z,1006.77
2017-10-08T09:35:16.625Z,1006.77
2017-10-08T09:36:17.066Z,1006.75
2017-10-08T09:37:17.502Z,1006.77
2017-10-08T09:38:17.939Z,1006.74
2017-10-08T09:39:18.380Z,1006.74
2017-10-08T09:40:18.822Z,1006.76
2017-10-08T09:41:19.264Z,1006.85
2017-10-08T09:42:19.703Z,1006.83
2017-10-08T09:43:20.152Z,1006.95
2017-10-08T09:44:20.584Z,1006.90
2017-10-08T09:45:21.026Z,1006.88
2017-10-08T09:46:21.465Z,1006.82
2017-10-08T09:47:21.913Z,1006.89
2017-10-08T09:48:22.349Z,1006.86
2017-10-08T09:49:22.791Z,1006.89
2017-10-08T09:50:23.233Z,1007.02
2017-10-08T09:51:23.721Z,1006.96
2017-10-08T09:52:24.114Z,1006.93
2017-10-08T09:53:24.560Z,1006.90
2017-10-08T09:54:24.996Z,1006.94
2017-10-08T09:55:25.438Z,1006.92
2017-10-08T09:56:25.880Z,1006.98
2017-10-08T09:57:26.325Z,1006.96
2017-10-08T09:58:26.762Z,1007.01
2017-10-08T09:59:27.205Z,1007.04
2017-10-08T10:00:27.645Z,1007.16
2017-10-08T10:01:28.094Z,1007.10
2017-10-08T10:02:28.526Z,1007.15
2017-10-08T10:03:28.975Z,1007.11
2017-10-08T10:04:29.405Z,1007.13
2017-10-08T10:05:29.841Z,1007.16
2017-10-08T10:06:30.276Z,1007.17
2017-10-08T10:07:30.713Z,1007.19
2017-10-08T10:08:31.165Z,1007.24
2017-10-08T10:09:31.587Z,1007.22
2017-10-08T10:10:32.022Z,1007.25
2017-10-08T10:11:32.463Z,1007.20
2017-10-08T10:12:32.896Z,1007.23
2017-10-08T10:13:33.332Z,1007.27
2017-10-08T10:14:33.768Z,1007.25
2017-10-08T10:15:34.203Z,1007.25
2017-10-08T10:16:34.640Z,1007.31
2017-10-08T10:17:35.092Z,1007.32
2017-10-08T10:18:35.507Z,1007.35
2017-10-08T10:19:35.949Z,1007.33
2017-10-08T10:20:36.384Z,1007.27
2017-10-08T10:21:36.822Z,1007.26
2017-10-08T10:22:37.262Z,1007.24
2017-10-08T10:23:37.704Z,1007.24
2017-10-08T10:24:38.141Z,1007.22
2017-10-08T10:25:38.586Z,1007.31
2017-10-08T10:26:39.043Z,1007.25
2017-10-08T10:27:39.470Z,1007.25
2017-10-08T10:28:39.912Z,1007.26
2017-10-08T10:29:40.361Z,1007.32
2017-10-08T10:30:40.804Z,1007.36
2017-10-08T10:31:41.250Z,1007.34
2017-10-08T10:32:41.705Z,1007.41
2017-10-08T10:33:42.142Z,1007.36
2017-10-08T10:34:42.585Z,1007.38
2017-10-08T10:35:43.031Z,1007.40
2017-10-08T10:36:43.476Z,1007.51
2017-10-08T10:37:43.920Z,1007.49
2017-10-08T10:38:44.366Z,1007.50
2017-10-08T10:39:44.807Z,1007.53
2017-10-08T10:40:45.247Z,1007.62
2017-10-08T10:41:45.709Z,1007.62
2017-10-08T10:42:46.127Z,1007.55
2017-10-08T10:43:46.567Z,1007.62
2017-10-08T10:44:47.008Z,1007.61
2017-10-08T10:45:47.447Z,1007.68
2017-10-08T10:46:47.943Z,1007.61
2017-10-08T10:47:48.325Z,1007.64
2017-10-08T10:48:48.760Z,1007.63
2017-10-08T10:49:49.195Z,1007.68
2017-10-08T10:50:49.632Z,1007.71
2017-10-08T10:51:50.069Z,1007.69
2017-10-08T10:52:50.506Z,1007.64
2017-10-08T10:53:50.945Z,1007.69
2017-10-08T10:54:51.380Z,1007.66
2017-10-08T10:55:51.820Z,1007.72
2017-10-08T10:56:52.255Z,1007.70
2017-10-08T10:57:52.691Z,1007.72
2017-10-08T10:58:53.128Z,1007.76
2017-10-08T10:59:53.566Z,1007.75
2017-10-08T11:00:54.001Z,1007.84
2017-10-08T11:01:54.435Z,1007.79
2017-10-08T11:02:54.871Z,1007.81
2017-10-08T11:03:55.309Z,1007.86
2017-10-08T11:04:55.745Z,1007.85
2017-10-08T11:05:56.179Z,1007.81
2017-10-08T11:06:56.611Z,1007.75
2017-10-08T11:07:57.054Z,1007.76
2017-10-08T11:08:57.485Z,1007.79
2017-10-08T11:09:57.925Z,1007.78
2017-10-08T11:10:58.357Z,1007.77
2017-10-08T11:11:58.794Z,1007.80
2017-10-08T11:12:59.242Z,1007.73
2017-10-08T11:13:59.676Z,1007.68
2017-10-08T11:15:00.117Z,1007.69
2017-10-08T11:16:00.557Z,1007.71
2017-10-08T11:17:01.004Z,1007.66
2017-10-08T11:18:01.444Z,1007.64
2017-10-08T11:19:01.890Z,1007.66
2017-10-08T11:20:02.335Z,1007.64
2017-10-08T11:21:02.781Z,1007.68
2017-10-08T11:22:03.227Z,1007.62
2017-10-08T11:23:03.673Z,1007.65
2017-10-08T11:24:04.123Z,1007.66
2017-10-08T11:25:04.571Z,1007.66
2017-10-08T11:26:05.020Z,1007.72
2017-10-08T11:27:05.467Z,1007.75
2017-10-08T11:28:05.912Z,1007.74
2017-10-08T11:29:06.361Z,1007.80
2017-10-08T11:30:06.807Z,1007.83
2017-10-08T11:31:07.256Z,1007.85
2017-10-08T11:32:07.698Z,1007.80
2017-10-08T11:33:08.140Z,1007.85
2017-10-08T11:34:08.584Z,1007.82
2017-10-08T11:36:09.473Z,1007.85
2017-10-08T11:37:09.920Z,1007.89
2017-10-08T11:38:10.359Z,1007.84
2017-10-08T11:39:10.803Z,1007.83
2017-10-08T11:40:11.242Z,1007.91
2017-10-08T11:41:11.679Z,1007.88
2017-10-08T11:42:33.277Z,1007.84
2017-10-08T11:43:12.552Z,1007.85
2017-10-08T11:44:12.998Z,1007.92
2017-10-08T11:45:13.427Z,1007.85
2017-10-08T11:46:13.867Z,1007.84
2017-10-08T11:47:14.297Z,1007.99
2017-10-08T11:48:35.902Z,1007.92
2017-10-08T11:49:15.174Z,1007.92
2017-10-08T11:50:15.610Z,1007.95
2017-10-08T11:51:16.043Z,1008.01
2017-10-08T11:52:16.474Z,1007.96
2017-10-08T11:53:16.913Z,1007.98
2017-10-08T11:54:38.507Z,1008.01
2017-10-08T11:55:17.784Z,1007.92
2017-10-08T11:56:18.215Z,1007.96
2017-10-08T11:57:18.648Z,1007.91
2017-10-08T11:58:19.083Z,1007.98
2017-10-08T11:59:19.544Z,1008.01
2017-10-08T12:00:41.145Z,1007.97
2017-10-08T12:01:20.381Z,1008.06
2017-10-08T12:02:20.816Z,1008.02
2017-10-08T12:03:21.252Z,1008.09
2017-10-08T12:04:21.681Z,1008.01
2017-10-08T12:05:22.151Z,1008.00
2017-10-08T12:06:43.711Z,1008.03
2017-10-08T12:07:22.996Z,1008.05
2017-10-08T12:08:23.417Z,1008.06
2017-10-08T12:09:23.853Z,1008.09
2017-10-08T12:10:24.281Z,1008.11
2017-10-08T12:11:24.716Z,1008.07
2017-10-08T12:12:46.307Z,1008.08
2017-10-08T12:13:25.593Z,1008.15
2017-10-08T12:14:26.019Z,1008.16
2017-10-08T12:15:26.446Z,1008.17
2017-10-08T12:16:26.878Z,1008.14
2017-10-08T12:17:27.314Z,1008.15
2017-10-08T12:18:48.904Z,1008.15
2017-10-08T12:19:28.190Z,1008.15
2017-10-08T12:20:28.613Z,1008.22
2017-10-08T12:21:29.049Z,1008.22
2017-10-08T12:22:29.476Z,1008.23
2017-10-08T12:23:29.907Z,1008.22
2017-10-08T12:24:51.501Z,1008.30
2017-10-08T12:25:30.787Z,1008.29
2017-10-08T12:26:31.213Z,1008.28
2017-10-08T12:27:31.637Z,1008.28
2017-10-08T12:28:32.073Z,1008.28
2017-10-08T12:29:32.507Z,1008.30
2017-10-08T12:30:54.097Z,1008.30
2017-10-08T12:31:33.366Z,1008.29
2017-10-08T12:32:33.812Z,1008.28
2017-10-08T12:33:34.232Z,1008.25
2017-10-08T12:34:34.680Z,1008.27